Time;durP1;ratioP1;P1;durP2;ratioP2;P2;SDS_P1;SDS_P2;PMS_P1;PMS_P2;Temp;Humidity;BMP_temperature;BMP_pressure;BME280_temperature;BME280_humidity;BME280_pressure;Samples;Min_cycle;Max_cycle;Signal;HPM_P1;HPM_P2
2022/04/17 00:01:42;;;;;;;17.38;10.20;;;;;;;3.08;87.00;101093.53;5055012;28;20032;-77
2022/04/17 00:04:10;;;;;;;19.92;11.15;;;;;;;3.00;87.59;101083.19;5073145;28;20346;-78
2022/04/17 00:06:36;;;;;;;25.13;11.70;;;;;;;2.95;87.67;101075.44;5072810;28;20054;-77
2022/04/17 00:09:02;;;;;;;15.30;9.40;;;;;;;2.90;87.81;101077.09;5072984;28;20498;-78
2022/04/17 00:11:27;;;;;;;17.67;8.80;;;;;;;2.96;89.14;101084.00;5072556;28;20022;-77
2022/04/17 00:13:54;;;;;;;14.77;9.32;;;;;;;2.91;88.60;101091.69;5072818;28;20109;-77
2022/04/17 00:16:20;;;;;;;16.00;9.13;;;;;;;2.83;88.65;101083.06;5072420;28;20025;-77
2022/04/17 00:18:45;;;;;;;15.90;8.95;;;;;;;2.89;88.25;101093.38;5072850;28;20047;-77
2022/04/17 00:21:11;;;;;;;13.35;8.13;;;;;;;2.85;87.42;101088.19;5072657;28;20063;-77
2022/04/17 00:23:36;;;;;;;18.73;9.10;;;;;;;2.80;87.43;101083.03;5072409;28;20028;-77
2022/04/17 00:26:02;;;;;;;15.10;9.00;;;;;;;2.74;87.41;101075.28;5072582;28;20021;-77
2022/04/17 00:28:28;;;;;;;11.77;8.02;;;;;;;2.78;87.25;101092.41;5054560;28;20032;-78
2022/04/17 00:30:54;;;;;;;23.15;9.55;;;;;;;2.75;87.38;101084.69;5054448;28;20040;-77
2022/04/17 00:33:20;;;;;;;21.38;11.60;;;;;;;2.65;87.99;101070.88;5072695;28;20029;-77
2022/04/17 00:35:45;;;;;;;24.55;13.50;;;;;;;2.62;88.86;101068.31;5072395;28;20078;-78
2022/04/17 00:38:11;;;;;;;27.42;15.13;;;;;;;2.63;89.25;101071.72;5072352;28;20020;-77
2022/04/17 00:40:37;;;;;;;15.43;8.35;;;;;;;2.61;88.68;101078.56;5072069;28;20060;-77
2022/04/17 00:43:18;;;;;;;15.10;8.88;;;;;;;2.56;88.68;101077.66;5072339;28;20116;-77
2022/04/17 00:45:43;;;;;;;15.38;8.10;;;;;;;2.48;89.09;101065.59;5072364;28;20557;-77
2022/04/17 00:48:08;;;;;;;10.65;7.43;;;;;;;2.52;89.16;101083.63;5072389;28;20044;-77
2022/04/17 00:50:34;;;;;;;15.82;8.55;;;;;;;2.45;89.17;101072.44;5072141;28;20031;-77
2022/04/17 00:53:00;;;;;;;15.00;8.65;;;;;;;2.43;89.42;101074.97;5071995;28;20063;-77
2022/04/17 00:55:25;;;;;;;11.40;8.05;;;;;;;2.40;89.13;101081.78;5053991;28;20379;-77
2022/04/17 00:57:51;;;;;;;17.13;9.48;;;;;;;2.33;89.57;101060.31;5054096;28;20035;-77
2022/04/17 01:00:18;;;;;;;57.83;20.00;;;;;;;2.43;89.15;101089.53;5071655;28;20028;-77
2022/04/17 01:02:44;;;;;;;25.88;12.82;;;;;;;2.39;89.46;101080.06;5072162;28;20025;-77
2022/04/17 01:05:10;;;;;;;20.48;11.05;;;;;;;2.42;89.50;101086.13;5072089;28;20078;-77
2022/04/17 01:07:37;;;;;;;33.63;16.20;;;;;;;2.40;89.49;101077.53;5071709;28;20028;-77
2022/04/17 01:10:04;;;;;;;20.60;11.98;;;;;;;2.45;89.64;101085.28;5071933;28;20020;-77
2022/04/17 01:12:29;;;;;;;30.08;17.33;;;;;;;2.39;89.83;101074.94;5053576;28;20376;-77
2022/04/17 01:14:55;;;;;;;18.35;9.98;;;;;;;2.44;90.11;101080.97;5072077;28;20025;-77
2022/04/17 01:17:21;;;;;;;15.70;10.00;;;;;;;2.41;90.43;101078.41;5071730;28;20460;-77
2022/04/17 01:19:47;;;;;;;15.93;8.95;;;;;;;2.41;90.99;101070.69;5071794;28;20024;-77
2022/04/17 01:22:12;;;;;;;16.15;9.98;;;;;;;2.42;91.12;101078.41;5071824;28;20043;-77
2022/04/17 01:27:24;;;;;;;19.13;9.77;;;;;;;2.33;91.25;101057.75;5071866;28;20040;-77
2022/04/17 01:29:51;;;;;;;16.17;9.82;;;;;;;2.32;91.54;101050.00;5071838;28;20032;-77
2022/04/17 01:32:16;;;;;;;15.68;9.23;;;;;;;2.38;91.39;101061.22;5071612;28;20501;-77
2022/04/17 01:34:43;;;;;;;18.08;9.15;;;;;;;2.39;91.32;101068.06;5071527;28;20107;-77
2022/04/17 01:37:10;;;;;;;17.08;9.25;;;;;;;2.35;91.22;101057.75;5071597;28;20024;-77
2022/04/17 01:39:35;;;;;;;15.73;9.38;;;;;;;2.35;91.30;101065.47;5071250;28;20032;-77
2022/04/17 01:42:01;;;;;;;17.33;9.10;;;;;;;2.32;91.32;101055.16;5071714;28;20387;-77
2022/04/17 01:44:28;;;;;;;14.45;9.32;;;;;;;2.32;91.38;101060.28;5071446;28;20487;-77
2022/04/17 01:46:55;;;;;;;20.20;10.98;;;;;;;2.22;91.45;101033.63;5071629;28;20530;-77
2022/04/17 01:49:21;;;;;;;18.65;10.75;;;;;;;2.24;92.02;101049.97;5053441;28;20369;-77
2022/04/17 01:51:48;;;;;;;14.80;9.75;;;;;;;2.16;92.13;101051.59;5071529;28;20070;-77
2022/04/17 01:54:16;;;;;;;17.92;11.30;;;;;;;2.14;92.32;101048.97;5053232;28;20675;-77
2022/04/17 01:56:42;;;;;;;18.90;10.60;;;;;;;2.08;92.15;101045.50;5053313;28;20040;-77
2022/04/17 01:59:08;;;;;;;18.00;10.90;;;;;;;2.01;92.77;101029.16;5071542;28;20423;-77
2022/04/17 02:01:35;;;;;;;22.05;11.27;;;;;;;1.98;92.47;101041.94;5071271;28;20483;-77
2022/04/17 02:04:01;;;;;;;16.60;11.00;;;;;;;1.99;92.82;101043.69;5071516;28;20506;-77
2022/04/17 02:06:27;;;;;;;17.08;10.75;;;;;;;1.95;93.10;101041.94;5071145;28;20028;-77
2022/04/17 02:08:53;;;;;;;24.77;11.30;;;;;;;1.94;93.45;101038.53;5053273;28;20075;-77
2022/04/17 02:11:19;;;;;;;19.33;11.15;;;;;;;1.92;93.25;101040.19;5071277;28;20110;-77
2022/04/17 02:13:45;;;;;;;23.33;12.38;;;;;;;1.82;93.56;101033.25;5073580;28;20097;-77
2022/04/17 02:16:11;;;;;;;22.90;11.88;;;;;;;1.86;93.83;101045.28;5075168;28;20032;-77
2022/04/17 02:18:36;;;;;;;21.83;11.43;;;;;;;1.83;94.31;101050.38;5074831;28;20028;-77
2022/04/17 02:21:02;;;;;;;22.40;12.10;;;;;;;1.79;94.00;101040.91;5074936;28;20731;-78
2022/04/17 02:23:28;;;;;;;19.08;11.10;;;;;;;1.79;94.35;101040.03;5074694;28;20646;-78
2022/04/17 02:25:53;;;;;;;22.35;11.48;;;;;;;1.68;94.32;101029.63;5075116;28;20098;-78
2022/04/17 02:28:18;;;;;;;20.58;11.90;;;;;;;1.70;94.10;101045.94;5075005;28;20028;-77
2022/04/17 02:30:44;;;;;;;20.05;11.35;;;;;;;1.67;94.37;101036.47;5074757;28;20043;-77
2022/04/17 02:33:09;;;;;;;18.13;11.60;;;;;;;1.69;94.99;101049.34;5056911;28;20028;-78
2022/04/17 02:35:35;;;;;;;22.73;12.13;;;;;;;1.61;95.10;101036.41;5074581;28;20105;-78
2022/04/17 02:38:00;;;;;;;20.50;11.93;;;;;;;1.62;95.29;101038.13;5074590;28;20103;-78
2022/04/17 02:40:26;;;;;;;22.63;13.05;;;;;;;1.59;95.82;101035.53;5074563;28;20063;-78
2022/04/17 02:42:53;;;;;;;24.08;12.20;;;;;;;1.63;96.40;101044.13;5074810;28;20032;-77
2022/04/17 02:45:21;;;;;;;24.50;13.27;;;;;;;1.60;96.32;101038.94;5074703;28;20029;-78
2022/04/17 02:47:48;;;;;;;22.70;12.13;;;;;;;1.63;96.21;101041.56;5074425;28;20018;-77
2022/04/17 02:50:18;;;;;;;20.60;12.80;;;;;;;1.70;95.80;101054.50;5056421;28;20373;-77
2022/04/17 02:52:45;;;;;;;20.80;12.73;;;;;;;1.68;96.04;101055.31;5074160;28;20028;-77
2022/04/17 02:55:10;;;;;;;20.50;12.60;;;;;;;1.66;95.20;101051.88;5074597;28;20055;-77
2022/04/17 02:57:36;;;;;;;20.60;12.23;;;;;;;1.55;95.34;101046.59;5074053;28;20075;-77
2022/04/17 03:00:04;;;;;;;22.40;13.57;;;;;;;1.51;96.09;101055.09;5074269;28;20047;-77
2022/04/17 03:07:58;;;;;;;20.95;11.57;;;;;;;1.39;95.86;101045.56;5074244;28;20031;-77
2022/04/17 03:10:24;;;;;;;19.60;12.07;;;;;;;1.43;95.90;101062.75;5074195;28;20024;-77
2022/04/17 03:12:50;;;;;;;22.65;12.88;;;;;;;1.35;96.56;101046.38;5074184;28;20040;-77
2022/04/17 03:15:16;;;;;;;21.08;11.95;;;;;;;1.37;96.69;101064.34;5074081;28;20384;-77
2022/04/17 03:17:41;;;;;;;26.88;12.45;;;;;;;1.39;96.92;101060.97;5073739;28;20550;-78
2022/04/17 03:20:07;;;;;;;19.80;11.55;;;;;;;1.38;96.68;101063.50;5055973;28;20485;-78
2022/04/17 03:22:33;;;;;;;19.30;11.15;;;;;;;1.39;96.65;101066.09;5073676;28;20086;-78
2022/04/17 03:25:04;;;;;;;18.13;11.25;;;;;;;1.37;96.53;101061.78;5072622;28;20028;-78
2022/04/17 03:27:30;;;;;;;18.75;11.77;;;;;;;1.33;96.70;101054.88;5055581;28;20075;-78
2022/04/17 03:29:55;;;;;;;18.13;10.55;;;;;;;1.31;96.72;101049.72;5073727;28;20063;-78
2022/04/17 03:32:21;;;;;;;17.50;10.30;;;;;;;1.38;96.85;101066.91;5073598;28;20031;-78
2022/04/17 03:34:46;;;;;;;16.15;10.07;;;;;;;1.30;97.08;101058.25;5073539;28;20068;-78
2022/04/17 03:37:13;;;;;;;17.67;10.75;;;;;;;1.36;97.03;101073.75;5073670;28;20487;-78
2022/04/17 03:39:39;;;;;;;31.27;15.25;;;;;;;1.34;97.72;101065.16;5073329;28;20020;-78
2022/04/17 03:42:05;;;;;;;21.73;12.10;;;;;;;1.29;97.57;101053.09;5073502;28;20043;-79
2022/04/17 03:44:30;;;;;;;21.25;11.15;;;;;;;1.36;98.32;101070.31;5073442;28;20041;-78
2022/04/17 03:46:56;;;;;;;31.92;16.63;;;;;;;1.30;98.55;101060.81;5073904;28;20055;-78
2022/04/17 03:49:21;;;;;;;22.15;11.75;;;;;;;1.24;98.39;101046.22;5073502;28;20024;-78
2022/04/17 03:51:46;;;;;;;20.20;11.38;;;;;;;1.25;99.05;101055.63;5073167;28;20052;-79
2022/04/17 03:54:12;;;;;;;20.75;11.07;;;;;;;1.32;98.48;101069.41;5055188;28;20053;-78
2022/04/17 03:56:37;;;;;;;25.85;14.25;;;;;;;1.26;99.05;101059.06;5055124;28;20102;-79
2022/04/17 03:59:03;;;;;;;19.83;12.32;;;;;;;1.23;98.82;101053.91;5055121;28;20055;-78
2022/04/17 04:01:29;;;;;;;19.13;11.85;;;;;;;1.35;98.73;101068.56;5072943;28;20086;-78
2022/04/17 04:03:55;;;;;;;38.33;18.55;;;;;;;1.39;99.03;101080.63;5055257;28;20600;-78
2022/04/17 04:06:21;;;;;;;31.60;18.05;;;;;;;1.39;99.44;101070.34;5073053;28;20024;-78
2022/04/17 04:08:49;;;;;;;16.08;10.23;;;;;;;1.30;98.65;101060.81;5054827;28;20137;-78
2022/04/17 04:11:15;;;;;;;19.90;10.15;;;;;;;1.45;98.59;101070.44;5072819;28;20384;-78
2022/04/17 04:13:42;;;;;;;17.48;10.43;;;;;;;1.45;98.04;101071.31;5054541;28;20434;-78
2022/04/17 04:16:08;;;;;;;17.83;10.55;;;;;;;1.46;97.77;101056.75;5072895;28;20020;-78
2022/04/17 04:18:33;;;;;;;16.42;10.63;;;;;;;1.54;97.58;101057.72;5054615;28;20457;-78
2022/04/17 04:20:58;;;;;;;16.88;10.27;;;;;;;1.60;97.18;101056.94;5072676;28;20460;-78
2022/04/17 04:23:24;;;;;;;16.92;10.65;;;;;;;1.67;96.50;101061.31;5054883;28;20024;-78
2022/04/17 04:25:49;;;;;;;14.90;9.68;;;;;;;1.63;96.65;101049.25;5072532;28;20468;-78
2022/04/17 04:28:33;;;;;;;18.42;10.30;;;;;;;1.73;96.49;101054.53;5054545;28;20065;-78
2022/04/17 04:31:11;;;;;;;16.23;10.30;;;;;;;1.72;95.68;101044.22;5072520;28;20472;-78
2022/04/17 04:33:39;;;;;;;18.00;10.02;;;;;;;1.81;95.81;101052.03;5072324;28;20126;-78
2022/04/17 04:36:06;;;;;;;19.83;10.48;;;;;;;1.85;95.46;101053.81;5072423;28;20442;-78
2022/04/17 04:38:32;;;;;;;16.75;11.50;;;;;;;1.97;95.45;101059.09;5072163;28;20029;-78
2022/04/17 04:40:59;;;;;;;18.42;11.30;;;;;;;1.97;95.04;101046.22;5072163;28;20040;-78
2022/04/17 04:43:24;;;;;;;19.77;11.15;;;;;;;2.14;94.60;101053.25;5072422;28;20239;-79
2022/04/17 04:46:08;;;;;;;18.05;11.18;;;;;;;2.13;93.99;101026.69;5054050;28;20064;-77
2022/04/17 04:51:28;;;;;;;16.92;10.48;;;;;;;2.55;92.75;101034.78;5072452;28;20055;-77
2022/04/17 04:53:55;;;;;;;17.75;10.35;;;;;;;2.81;92.26;101056.44;5071975;28;20049;-77
2022/04/17 04:56:21;;;;;;;18.65;10.95;;;;;;;3.07;91.32;101045.47;5072109;28;20507;-78
2022/04/17 04:58:46;;;;;;;23.67;13.45;;;;;;;3.45;90.20;101043.09;5071959;28;20033;-77
2022/04/17 05:01:12;;;;;;;22.80;10.85;;;;;;;3.87;87.93;101044.97;5072054;28;20033;-77
2022/04/17 05:03:39;;;;;;;18.08;10.95;;;;;;;3.95;86.39;101045.84;5071784;28;20505;-77
2022/04/17 05:06:05;;;;;;;16.77;11.32;;;;;;;4.07;86.34;101037.31;5053893;28;20059;-78
2022/04/17 05:08:30;;;;;;;20.10;11.95;;;;;;;4.42;84.97;101034.75;5071915;28;20060;-78
2022/04/17 05:10:57;;;;;;;17.40;11.68;;;;;;;4.92;83.13;101043.38;5071729;28;20017;-77
2022/04/17 05:13:22;;;;;;;17.58;10.45;;;;;;;5.51;80.49;101050.97;5071980;28;20024;-78
2022/04/17 05:15:48;;;;;;;20.23;12.13;;;;;;;6.08;78.79;101042.16;5071749;28;20036;-77
2022/04/17 05:18:15;;;;;;;18.70;10.98;;;;;;;6.84;74.39;101041.56;5071918;28;20028;-78
2022/04/17 05:20:40;;;;;;;19.55;11.43;;;;;;;8.22;71.30;101045.97;5071799;28;20021;-78
2022/04/17 05:23:26;;;;;;;19.60;12.25;;;;;;;9.36;64.82;101038.91;5072044;28;20032;-78
2022/04/17 05:25:56;;;;;;;19.23;10.43;;;;;;;9.32;61.46;101042.44;5071677;28;20020;-78
2022/04/17 05:28:22;;;;;;;20.00;13.30;;;;;;;8.86;61.95;101030.28;5071853;28;20063;-78
2022/04/17 05:30:47;;;;;;;17.92;11.57;;;;;;;8.87;62.04;101045.84;5053539;28;20636;-79
2022/04/17 05:33:13;;;;;;;15.60;10.43;;;;;;;9.06;62.53;101027.31;5072137;28;20032;-79
2022/04/17 05:35:39;;;;;;;14.95;10.57;;;;;;;9.66;61.76;101046.09;5071816;28;20028;-78
2022/04/17 05:38:05;;;;;;;16.98;11.05;;;;;;;10.90;59.20;101035.41;5071937;28;20123;-79
2022/04/17 05:40:47;;;;;;;16.40;10.48;;;;;;;11.55;52.46;101034.53;5053756;28;20031;-78
2022/04/17 05:43:12;;;;;;;15.68;11.10;;;;;;;10.72;52.98;101039.34;5071552;28;20028;-77
2022/04/17 05:45:38;;;;;;;18.00;9.98;;;;;;;10.02;54.38;101045.31;5071252;28;20066;-78
2022/04/17 05:48:09;;;;;;;15.02;10.82;;;;;;;9.82;55.22;101041.44;5073204;28;20028;-78
2022/04/17 05:50:34;;;;;;;15.90;10.13;;;;;;;9.45;56.21;101039.56;5075740;28;20020;-77
2022/04/17 05:53:00;;;;;;;14.98;10.27;;;;;;;9.75;56.88;101034.63;5075625;28;20044;-77
2022/04/17 05:55:27;;;;;;;14.82;9.88;;;;;;;10.82;54.31;101029.53;5075635;28;20028;-77
2022/04/17 05:57:52;;;;;;;17.08;10.95;;;;;;;12.48;50.19;101012.59;5057098;28;20113;-75
2022/04/17 06:00:17;;;;;;;18.30;10.35;;;;;;;12.52;48.12;101022.03;5075488;28;20168;-75
2022/04/17 06:02:46;;;;;;;16.30;9.77;;;;;;;11.82;47.94;101019.81;5075239;28;20096;-76
2022/04/17 06:05:13;;;;;;;16.85;10.23;;;;;;;11.22;49.84;101031.13;5075342;28;20408;-75
2022/04/17 06:07:39;;;;;;;12.55;8.60;;;;;;;11.09;49.71;101034.97;5075323;28;20083;-75
2022/04/17 06:10:07;;;;;;;11.93;8.32;;;;;;;11.06;49.28;101022.00;5075109;28;20557;-75
2022/04/17 06:12:33;;;;;;;12.85;8.32;;;;;;;12.24;47.15;101011.59;5075025;28;20098;-74
2022/04/17 06:14:59;;;;;;;18.60;12.57;;;;;;;12.48;46.57;101016.03;5074993;28;20024;-75
2022/04/17 06:17:25;;;;;;;18.73;9.25;;;;;;;11.47;47.34;101031.28;5075038;28;20039;-75
2022/04/17 06:19:50;;;;;;;14.50;9.48;;;;;;;11.09;49.06;101020.16;5074774;28;20028;-75
2022/04/17 06:22:17;;;;;;;312.08;110.93;;;;;;;11.44;49.53;101032.22;5074876;28;20060;-75
2022/04/17 06:24:43;;;;;;;38.65;18.25;;;;;;;12.17;47.34;101026.59;5074611;28;20115;-75
2022/04/17 06:27:08;;;;;;;17.42;10.90;;;;;;;12.79;46.00;101027.25;5074754;28;20107;-75
2022/04/17 06:29:35;;;;;;;41.03;18.67;;;;;;;13.52;44.73;101016.81;5074980;28;20505;-76
2022/04/17 06:32:00;;;;;;;81.53;32.47;;;;;;;13.71;43.07;101006.50;5074748;28;20028;-76
2022/04/17 06:34:25;;;;;;;182.10;73.28;;;;;;;13.57;43.33;101029.72;5074878;28;20028;-75
2022/04/17 06:36:51;;;;;;;131.77;49.47;;;;;;;14.19;43.88;101011.59;5074546;28;20047;-79
2022/04/17 06:39:16;;;;;;;18.75;10.10;;;;;;;15.81;38.99;101006.44;5074694;28;20044;-79
2022/04/17 06:41:41;;;;;;;265.42;90.45;;;;;;;17.55;35.65;101028.41;5074374;28;20055;-79
2022/04/17 06:44:07;;;;;;;37.75;16.50;;;;;;;18.47;33.21;101007.50;5074824;28;20024;-79
2022/04/17 06:46:32;;;;;;;139.15;58.38;;;;;;;19.62;29.86;101022.59;5074771;28;20028;-79
2022/04/17 06:48:58;;;;;;;87.28;33.00;;;;;;;20.44;27.80;101015.59;5074533;28;20524;-79
2022/04/17 06:51:25;;;;;;;16.40;9.63;;;;;;;20.48;26.95;101017.13;5074778;28;20036;-79
2022/04/17 06:53:51;;;;;;;17.58;10.80;;;;;;;19.30;27.75;101021.06;5074403;28;20538;-79
2022/04/17 06:56:18;;;;;;;89.55;41.80;;;;;;;19.33;29.15;101021.72;5074404;28;20025;-79
2022/04/17 06:58:48;;;;;;;89.43;45.70;;;;;;;22.08;25.78;101018.34;5074187;28;20036;-79
2022/04/17 07:01:14;;;;;;;21.97;12.80;;;;;;;23.40;23.66;101024.34;5074352;28;20028;-79
2022/04/17 07:03:41;;;;;;;102.60;51.13;;;;;;;22.88;22.77;101012.38;5056033;28;20510;-79
2022/04/17 07:06:06;;;;;;;31.52;16.75;;;;;;;22.50;23.68;101002.88;5074206;28;20498;-79
2022/04/17 07:08:32;;;;;;;18.20;9.63;;;;;;;23.84;22.55;101012.81;5074320;28;20028;-79
2022/04/17 07:10:57;;;;;;;10.77;6.40;;;;;;;26.39;20.27;100999.81;5073838;28;20445;-79
2022/04/17 07:13:23;;;;;;;19.45;12.20;;;;;;;28.84;17.59;100997.50;5074098;28;20021;-79
2022/04/17 07:15:49;;;;;;;17.20;11.57;;;;;;;30.20;16.41;100993.06;5074287;28;20372;-78
2022/04/17 07:18:15;;;;;;;121.85;64.32;;;;;;;30.03;15.88;100992.19;5056152;28;20032;-79
2022/04/17 07:20:40;;;;;;;105.25;54.55;;;;;;;31.70;15.24;100992.47;5073886;28;20029;-79
2022/04/17 07:23:08;;;;;;;9.18;5.43;;;;;;;31.03;14.47;100987.50;5074280;28;20033;-79
2022/04/17 07:25:35;;;;;;;9.27;4.63;;;;;;;31.12;14.76;100991.00;5073861;28;20050;-79
2022/04/17 07:28:01;;;;;;;7.53;4.90;;;;;;;32.08;14.09;100984.53;5073786;28;20119;-79
2022/04/17 07:30:29;;;;;;;6.65;4.63;;;;;;;33.49;12.92;100996.31;5073727;28;20108;-78
2022/04/17 07:32:55;;;;;;;9.20;5.22;;;;;;;33.83;12.93;100992.16;5073587;28;20036;-79
2022/04/17 07:35:23;;;;;;;6.35;4.15;;;;;;;33.47;12.86;100978.66;5073901;28;20078;-79
2022/04/17 07:37:59;;;;;;;13.32;10.43;;;;;;;33.30;12.93;100988.78;5073387;28;20440;-79
2022/04/17 07:40:27;;;;;;;6.97;4.35;;;;;;;32.54;13.10;100980.81;5073667;28;20110;-79
2022/04/17 07:42:54;;;;;;;8.68;6.60;;;;;;;33.17;12.48;100988.63;5073523;28;20024;-79
2022/04/17 07:45:20;;;;;;;13.05;9.77;;;;;;;32.75;13.05;100974.69;5073586;28;20450;-79
2022/04/17 07:47:47;;;;;;;11.27;7.50;;;;;;;33.97;12.36;100979.66;5073214;28;20048;-80
2022/04/17 07:50:15;;;;;;;12.60;9.55;;;;;;;34.23;11.66;100979.09;5073413;28;20178;-78
2022/04/17 07:52:44;;;;;;;8.23;6.93;;;;;;;32.99;12.52;100975.47;5073158;28;20108;-77
2022/04/17 07:55:12;;;;;;;6.03;4.53;;;;;;;32.15;13.63;100964.78;5073587;28;20025;-79
2022/04/17 07:57:56;;;;;;;8.45;5.28;;;;;;;33.41;12.81;100966.69;5073563;28;20077;-79
2022/04/17 08:00:23;;;;;;;7.07;5.82;;;;;;;34.18;12.48;100963.44;5073312;28;20054;-77
2022/04/17 08:03:06;;;;;;;8.82;7.03;;;;;;;34.26;11.51;100955.19;5072958;28;20028;-76
2022/04/17 08:05:34;;;;;;;11.07;7.07;;;;;;;33.15;11.56;100967.19;5073206;28;20040;-79
2022/04/17 08:08:00;;;;;;;9.13;7.38;;;;;;;30.05;13.53;100963.31;5072881;28;20033;-79
2022/04/17 08:10:25;;;;;;;7.80;5.35;;;;;;;25.72;16.47;100947.19;5072614;28;20450;-78
2022/04/17 08:12:51;;;;;;;8.00;4.60;;;;;;;21.71;19.59;100951.19;5072708;28;20029;-79
2022/04/17 08:15:16;;;;;;;7.70;4.80;;;;;;;18.14;23.17;100973.34;5072889;28;20029;-79
2022/04/17 08:17:42;;;;;;;7.90;4.80;;;;;;;15.96;26.08;100968.03;5073045;28;20020;-79
2022/04/17 08:20:08;;;;;;;8.95;5.00;;;;;;;15.00;28.42;100964.56;5072689;28;20082;-79
2022/04/17 08:22:33;;;;;;;7.97;5.45;;;;;;;14.46;30.61;100974.72;5072782;28;20032;-79
2022/04/17 08:24:59;;;;;;;7.05;4.65;;;;;;;13.95;30.42;100958.44;5072354;28;20031;-78
2022/04/17 08:27:24;;;;;;;5.82;4.38;;;;;;;13.83;32.36;100958.06;5072450;28;20058;-79
2022/04/17 08:29:49;;;;;;;8.70;5.32;;;;;;;13.35;32.35;100966.84;5072539;28;20036;-79
2022/04/17 08:32:15;;;;;;;9.00;5.28;;;;;;;12.83;32.76;100955.63;5072240;28;20685;-78
2022/04/17 08:34:40;;;;;;;7.80;5.13;;;;;;;12.58;33.47;100951.25;5072516;28;20051;-77
2022/04/17 08:37:06;;;;;;;6.07;4.88;;;;;;;12.15;34.10;100949.22;5072224;28;20031;-77
2022/04/17 08:39:31;;;;;;;7.68;4.43;;;;;;;11.60;35.00;100927.41;5084440;28;20531;-78
2022/04/17 08:41:59;;;;;;;9.52;4.95;;;;;;;11.33;35.93;100952.56;5063249;28;20023;-78
2022/04/17 08:44:24;;;;;;;6.13;4.43;;;;;;;11.24;36.25;100938.88;5066712;28;20476;-78
2022/04/17 08:46:50;;;;;;;7.60;4.10;;;;;;;11.02;35.76;100939.53;5087540;28;20020;-78
2022/04/17 08:49:18;;;;;;;5.90;4.78;;;;;;;11.10;36.47;100953.22;5072297;28;20115;-78
2022/04/17 08:51:48;;;;;;;7.25;3.88;;;;;;;10.96;36.69;100932.75;5054330;28;20035;-78
2022/04/17 08:54:14;;;;;;;7.05;4.00;;;;;;;11.23;36.94;100944.16;5072047;28;20041;-78
2022/04/17 08:56:40;;;;;;;7.45;4.63;;;;;;;11.39;36.07;100932.38;5072038;28;20041;-78
2022/04/17 08:59:06;;;;;;;7.43;4.90;;;;;;;11.39;37.21;100934.97;5071597;28;20056;-78
2022/04/17 09:01:36;;;;;;;7.45;4.75;;;;;;;11.52;37.09;100932.88;5072398;28;20079;-78
2022/04/17 09:04:03;;;;;;;6.05;3.58;;;;;;;11.30;35.49;100910.94;5071958;28;20107;-78
2022/04/17 09:06:29;;;;;;;6.85;4.03;;;;;;;11.29;36.75;100911.81;5071874;28;20024;-78
2022/04/17 09:09:05;;;;;;;12.95;7.95;;;;;;;11.42;37.00;100921.00;5071706;28;20035;-78
2022/04/17 09:11:33;;;;;;;5.53;4.03;;;;;;;11.26;36.26;100917.13;5071825;28;20365;-78
2022/04/17 09:14:01;;;;;;;5.60;4.25;;;;;;;11.04;36.38;100924.69;5071865;28;20185;-78
2022/04/17 09:16:33;;;;;;;9.10;4.90;;;;;;;10.77;37.46;100919.34;5072085;28;20115;-79
2022/04/17 09:18:59;;;;;;;7.57;4.95;;;;;;;10.76;38.18;100922.00;5071737;28;20029;-78
2022/04/17 09:21:34;;;;;;;6.55;4.85;;;;;;;10.59;37.39;100912.03;5071834;28;20368;-78
2022/04/17 09:24:13;;;;;;;11.25;6.82;;;;;;;10.48;38.12;100896.69;5071515;28;20037;-78
2022/04/17 09:26:53;;;;;;;7.47;5.18;;;;;;;10.42;38.50;100899.47;5076040;28;20020;-79
2022/04/17 09:29:28;;;;;;;5.95;3.83;;;;;;;10.36;38.46;100904.81;5084819;28;20089;-78
2022/04/17 09:32:04;;;;;;;6.55;4.05;;;;;;;10.46;38.50;100909.75;5074388;28;20020;-80
2022/04/17 09:34:45;;;;;;;10.13;5.90;;;;;;;10.23;38.45;100883.41;5074583;28;20063;-79
2022/04/17 09:37:18;;;;;;;7.38;4.05;;;;;;;10.36;39.53;100904.81;5073623;28;20032;-79
2022/04/17 09:39:45;;;;;;;5.05;3.80;;;;;;;10.28;38.02;100896.34;5091749;28;20028;-80
2022/04/17 09:42:11;;;;;;;5.75;3.80;;;;;;;10.36;39.05;100895.25;5073324;28;20024;-80
2022/04/17 09:44:47;;;;;;;6.80;4.03;;;;;;;10.54;38.02;100890.47;5075567;28;20037;-80
2022/04/17 09:47:24;;;;;;;5.68;3.90;;;;;;;10.54;38.45;100880.91;5053556;28;20031;-80
2022/04/17 09:49:54;;;;;;;17.42;9.70;;;;;;;10.60;38.21;100893.75;5071405;28;20371;-80
2022/04/17 09:52:20;;;;;;;6.75;4.22;;;;;;;10.51;37.45;100882.72;5071543;28;20028;-80
2022/04/17 09:54:47;;;;;;;7.00;4.68;;;;;;;10.53;37.62;100868.75;5071563;28;20099;-80
2022/04/17 09:57:27;;;;;;;6.45;3.53;;;;;;;10.42;38.27;100866.44;5071236;28;20039;-79
2022/04/17 09:59:53;;;;;;;6.72;4.35;;;;;;;10.28;38.83;100846.88;5072368;28;20039;-80
2022/04/17 10:02:19;;;;;;;6.03;3.20;;;;;;;10.40;38.49;100872.59;5072856;28;20028;-79
2022/04/17 10:04:45;;;;;;;6.25;3.90;;;;;;;10.31;38.85;100873.69;5091229;28;20103;-79
2022/04/17 10:07:11;;;;;;;5.68;3.72;;;;;;;10.28;37.88;100854.66;5091425;28;20020;-79
2022/04/17 10:09:38;;;;;;;4.57;3.25;;;;;;;10.31;38.43;100854.59;5091472;28;20084;-80
2022/04/17 10:12:05;;;;;;;6.88;4.43;;;;;;;10.29;38.43;100846.00;5091011;28;20032;-80
2022/04/17 10:14:31;;;;;;;7.10;4.43;;;;;;;10.47;38.51;100856.75;5091582;28;20036;-79
2022/04/17 10:16:58;;;;;;;6.72;4.65;;;;;;;10.46;38.58;100847.25;5091142;28;20089;-78
2022/04/17 10:19:25;;;;;;;128.13;105.72;;;;;;;10.56;38.83;100854.81;5091450;28;20025;-77
2022/04/17 10:21:51;;;;;;;9.07;5.85;;;;;;;10.46;38.50;100833.38;5072934;28;20035;-82
2022/04/17 10:24:19;;;;;;;7.28;4.60;;;;;;;10.65;39.65;100846.72;5073199;28;20498;-79
2022/04/17 10:26:47;;;;;;;6.28;4.15;;;;;;;10.76;38.54;100830.81;5091105;28;20146;-79
2022/04/17 10:29:38;;;;;;;7.40;4.38;;;;;;;10.85;38.80;100834.00;5091530;28;20029;-79
2022/04/17 10:32:22;;;;;;;4.78;3.65;;;;;;;10.93;37.68;100833.78;5091094;28;20378;-79
2022/04/17 10:35:15;;;;;;;4.60;3.60;;;;;;;10.86;38.22;100830.47;5085662;28;20029;-83
2022/04/17 10:38:17;;;;;;;4.47;3.75;;;;;;;10.89;39.43;100829.56;5057017;28;20040;-87
2022/04/17 10:40:59;;;;;;;7.15;4.82;;;;;;;10.93;39.40;100828.56;5056543;28;20495;-77
2022/04/17 10:43:32;;;;;;;6.35;5.47;;;;;;;10.94;38.80;100819.84;5074421;28;20028;-78
2022/04/17 10:46:20;;;;;;;4.93;3.35;;;;;;;11.03;37.44;100821.31;5074149;28;20561;-82
2022/04/17 10:48:45;;;;;;;4.93;3.20;;;;;;;10.86;36.97;100809.63;5074579;28;20395;-80
2022/04/17 10:51:20;;;;;;;7.05;3.20;;;;;;;10.73;36.73;100819.56;5074381;28;20029;-81
2022/04/17 10:54:04;;;;;;;4.75;3.05;;;;;;;10.56;37.61;100800.94;5055847;28;20052;-84
2022/04/17 10:56:35;;;;;;;4.80;3.55;;;;;;;10.49;37.98;100797.69;5056559;28;20033;-81
2022/04/17 10:59:03;;;;;;;;;;;;;;;10.66;39.26;100805.03;5074818;28;20173;-82
2022/04/17 11:01:43;;;;;;;4.93;3.08;;;;;;;10.79;39.31;100796.81;5074257;28;20001;-82
2022/04/17 11:04:31;;;;;;;5.07;3.10;;;;;;;10.97;38.70;100802.34;5055876;28;20081;-81
2022/04/17 11:07:06;;;;;;;3.60;2.88;;;;;;;10.87;36.57;100802.66;5074018;28;20024;-80
2022/04/17 11:09:42;;;;;;;4.55;3.10;;;;;;;10.80;38.02;100802.00;5056120;28;20067;-80
2022/04/17 11:12:11;;;;;;;3.88;3.05;;;;;;;10.80;36.89;100798.56;5073797;28;20033;-80
2022/04/17 11:14:39;;;;;;;3.35;3.00;;;;;;;10.66;36.64;100776.34;5055708;28;20086;-79
2022/04/17 11:17:11;;;;;;;3.03;2.60;;;;;;;10.78;37.88;100792.50;5055737;28;20020;-81
2022/04/17 11:19:38;;;;;;;4.57;3.08;;;;;;;10.74;38.29;100784.81;5073820;28;20045;-80
2022/04/17 11:22:07;;;;;;;4.15;2.90;;;;;;;10.73;36.75;100784.84;5055556;28;20448;-78
2022/04/17 11:24:54;;;;;;;4.43;3.58;;;;;;;10.75;38.43;100783.06;5055778;28;20025;-80
2022/04/17 11:27:49;;;;;;;5.15;3.70;;;;;;;10.67;38.27;100770.25;5055908;28;20112;-81
2022/04/17 11:30:14;;;;;;;7.95;4.43;;;;;;;10.78;38.85;100769.06;5074351;28;20033;-86
2022/04/17 11:32:39;;;;;;;10.57;7.60;;;;;;;10.86;38.90;100769.69;5055800;28;20032;-87
2022/04/17 11:35:10;;;;;;;7.43;4.03;;;;;;;10.95;38.97;100745.94;5055286;28;20032;-86